Time;durP1;ratioP1;P1;durP2;ratioP2;P2;SDS_P1;SDS_P2;PMS_P1;PMS_P2;Temp;Humidity;BMP_temperature;BMP_pressure;BME280_temperature;BME280_humidity;BME280_pressure;Samples;Min_cycle;Max_cycle;Signal;HPM_P1;HPM_P2
2021/12/02 00:02:18;;;;;;;3.17;1.10;;;;;;;3.87;100.00;98392.47;6073119;29;20128;-91
2021/12/02 00:05:22;;;;;;;7.68;1.20;;;;;;;3.86;100.00;98395.16;6070943;29;20037;-92
2021/12/02 00:08:26;;;;;;;1.95;1.00;;;;;;;3.82;100.00;98383.56;6085770;29;20064;-92
2021/12/02 00:11:29;;;;;;;3.88;1.13;;;;;;;3.75;100.00;98405.50;6073826;29;20063;-91
2021/12/02 00:14:44;;;;;;;3.28;0.80;;;;;;;3.69;100.00;98393.25;6070901;29;20081;-92
2021/12/02 00:17:55;;;;;;;4.60;0.90;;;;;;;3.67;100.00;98388.25;6054941;29;20851;-92
2021/12/02 00:21:09;;;;;;;2.03;0.68;;;;;;;3.62;100.00;98386.06;6073273;29;20041;-92
2021/12/02 00:24:18;;;;;;;5.10;1.20;;;;;;;3.71;100.00;98383.69;6072540;29;20048;-92
2021/12/02 00:27:23;;;;;;;2.50;0.88;;;;;;;3.77;100.00;98396.75;6087232;29;20204;-92
2021/12/02 00:30:26;;;;;;;3.25;0.90;;;;;;;3.76;100.00;98405.38;6073686;29;20045;-93
2021/12/02 00:33:31;;;;;;;1.58;0.88;;;;;;;3.76;100.00;98404.56;6066347;29;20064;-92
2021/12/02 00:36:36;;;;;;;4.25;1.20;;;;;;;3.73;100.00;98415.06;6071752;29;20147;-91
2021/12/02 00:39:39;;;;;;;7.22;1.30;;;;;;;3.75;100.00;98418.28;6070582;29;20049;-93
2021/12/02 00:42:42;;;;;;;4.63;1.30;;;;;;;3.72;100.00;98433.91;6072461;29;20048;-91
2021/12/02 00:45:45;;;;;;;2.03;0.75;;;;;;;3.74;100.00;98422.59;6070689;29;20053;-91
2021/12/02 00:48:48;;;;;;;3.95;0.95;;;;;;;3.72;100.00;98450.06;6074103;29;20520;-91
2021/12/02 00:51:54;;;;;;;7.82;1.40;;;;;;;3.56;100.00;98445.44;6073604;29;20039;-91
2021/12/02 00:54:56;;;;;;;3.22;0.98;;;;;;;3.45;100.00;98453.19;6073591;29;20055;-92
2021/12/02 00:57:59;;;;;;;5.75;0.90;;;;;;;3.54;100.00;98470.31;6074427;29;20693;-92
2021/12/02 01:01:02;;;;;;;7.13;1.30;;;;;;;3.47;100.00;98451.31;6067262;29;20274;-92
2021/12/02 01:04:10;;;;;;;3.97;1.13;;;;;;;3.40;100.00;98463.81;6066876;29;20071;-92
2021/12/02 01:07:19;;;;;;;5.68;1.00;;;;;;;3.45;100.00;98465.97;6071179;29;20759;-92
2021/12/02 01:10:21;;;;;;;6.90;1.35;;;;;;;3.49;100.00;98463.97;6069603;29;20049;-92
2021/12/02 01:13:24;;;;;;;2.70;0.80;;;;;;;3.42;100.00;98459.34;6071811;29;20066;-92
2021/12/02 01:16:27;;;;;;;4.25;0.88;;;;;;;3.39;100.00;98457.06;6070005;29;20618;-92
2021/12/02 01:19:29;;;;;;;3.58;0.90;;;;;;;3.43;100.00;98478.09;6072280;29;20048;-92
2021/12/02 01:22:34;;;;;;;4.13;1.02;;;;;;;3.45;100.00;98479.59;6070913;29;20216;-91
2021/12/02 01:25:37;;;;;;;3.60;0.73;;;;;;;3.28;100.00;98480.16;6068351;29;20502;-93
2021/12/02 01:28:39;;;;;;;6.70;1.23;;;;;;;3.22;100.00;98491.66;6071101;29;20048;-91
2021/12/02 01:31:43;;;;;;;5.05;0.93;;;;;;;3.30;100.00;98482.56;6069051;29;20071;-92
2021/12/02 01:34:47;;;;;;;5.35;1.05;;;;;;;3.10;100.00;98500.34;6072484;29;20049;-91
2021/12/02 01:37:49;;;;;;;5.80;1.00;;;;;;;2.75;100.00;98503.97;6070894;29;20041;-89
2021/12/02 01:40:55;;;;;;;4.20;1.00;;;;;;;2.42;100.00;98492.13;6075426;29;20489;-93
2021/12/02 01:43:59;;;;;;;1.83;0.75;;;;;;;2.30;100.00;98490.50;6090907;29;20072;-92
2021/12/02 01:51:20;;;;;;;3.92;1.20;;;;;;;1.79;100.00;98502.06;6146107;23;20290;-93
2021/12/02 02:13:25;;;;;;;1.67;0.95;;;;;;;1.96;100.00;98502.50;6487990;23;20024;-93
2021/12/02 02:16:28;;;;;;;6.97;1.05;;;;;;;2.02;100.00;98502.03;6122349;23;20028;-94
2021/12/02 02:19:32;;;;;;;4.60;1.30;;;;;;;2.00;100.00;98509.00;6121269;28;20051;-91
2021/12/02 02:22:35;;;;;;;2.90;0.90;;;;;;;2.07;100.00;98505.06;6099843;29;20048;-91
2021/12/02 02:25:38;;;;;;;11.60;2.30;;;;;;;1.98;100.00;98504.00;6077035;29;20629;-91
2021/12/02 02:28:40;;;;;;;9.48;1.58;;;;;;;1.94;100.00;98516.19;6090359;29;20175;-90
2021/12/02 02:31:44;;;;;;;5.63;1.48;;;;;;;2.00;100.00;98516.66;6092404;29;20036;-90
2021/12/02 02:34:46;;;;;;;3.67;0.98;;;;;;;1.99;100.00;98522.66;6092302;29;20052;-90
2021/12/02 02:37:48;;;;;;;7.65;1.27;;;;;;;1.93;100.00;98518.84;6096610;29;20044;-89
2021/12/02 02:40:51;;;;;;;4.88;0.82;;;;;;;1.87;100.00;98539.75;6098951;29;20517;-89
2021/12/02 02:44:08;;;;;;;5.00;0.88;;;;;;;2.06;100.00;98526.38;6097044;29;20052;-89
2021/12/02 02:47:11;;;;;;;5.28;1.00;;;;;;;1.96;100.00;98530.56;6096524;29;20036;-89
2021/12/02 02:50:16;;;;;;;7.47;1.13;;;;;;;1.87;100.00;98524.44;6095494;29;20040;-89
2021/12/02 02:53:22;;;;;;;2.78;0.93;;;;;;;1.90;100.00;98525.00;6098935;29;20040;-88
2021/12/02 02:56:28;;;;;;;4.22;1.00;;;;;;;1.93;100.00;98524.75;6081825;29;20425;-88
2021/12/02 03:19:29;;;;;;;3.92;1.05;;;;;;;1.91;100.00;98547.06;6097865;29;20057;-89
2021/12/02 03:22:32;;;;;;;4.30;1.08;;;;;;;1.94;100.00;98540.91;6094854;29;20037;-88
2021/12/02 03:25:35;;;;;;;8.63;1.80;;;;;;;1.84;100.00;98548.44;6097360;29;20170;-89
2021/12/02 03:28:37;;;;;;;7.00;1.20;;;;;;;1.77;100.00;98546.47;6096851;29;20100;-89
2021/12/02 03:31:40;;;;;;;4.90;0.88;;;;;;;1.72;100.00;98545.06;6093868;29;20334;-88
2021/12/02 03:34:42;;;;;;;4.68;1.00;;;;;;;1.73;100.00;98554.31;6097059;29;20362;-89
2021/12/02 03:37:44;;;;;;;4.50;0.90;;;;;;;1.75;100.00;98555.97;6090654;29;20072;-89
2021/12/02 03:40:46;;;;;;;2.15;0.90;;;;;;;1.73;100.00;98563.72;6098012;29;20055;-89
2021/12/02 03:43:49;;;;;;;3.05;1.15;;;;;;;1.69;100.00;98547.00;6096318;29;20040;-89
2021/12/02 03:46:53;;;;;;;3.13;0.88;;;;;;;1.69;100.00;98568.25;6092104;29;20072;-89
2021/12/02 03:49:55;;;;;;;3.88;1.00;;;;;;;1.74;100.00;98565.34;6096165;29;20071;-90
2021/12/02 03:52:57;;;;;;;5.05;1.00;;;;;;;1.61;100.00;98572.25;6093594;29;20127;-89
2021/12/02 03:56:01;;;;;;;6.32;1.08;;;;;;;1.51;100.00;98569.56;6089252;29;20044;-90
2021/12/02 03:59:04;;;;;;;4.03;0.88;;;;;;;1.47;100.00;98566.44;6091488;29;20123;-90
2021/12/02 04:02:06;;;;;;;5.35;1.50;;;;;;;1.59;100.00;98579.22;6075752;29;20040;-89
2021/12/02 04:05:08;;;;;;;3.33;0.85;;;;;;;1.65;100.00;98578.78;6082937;29;20084;-89
2021/12/02 04:08:12;;;;;;;8.68;1.08;;;;;;;1.57;100.00;98569.13;6094427;29;20489;-89
2021/12/02 04:14:46;;;;;;;4.43;0.90;;;;;;;1.47;100.00;98563.91;6093861;29;20052;-90
2021/12/02 04:17:48;;;;;;;3.35;1.10;;;;;;;1.51;100.00;98572.13;6095456;29;20121;-89
2021/12/02 04:20:51;;;;;;;2.97;0.90;;;;;;;1.57;100.00;98579.34;6100415;29;20659;-90
2021/12/02 04:23:53;;;;;;;6.22;0.82;;;;;;;1.59;100.00;98582.59;6100853;29;20048;-90
2021/12/02 04:26:55;;;;;;;4.30;1.00;;;;;;;1.48;100.00;98596.09;6099717;29;20060;-90
2021/12/02 04:29:58;;;;;;;5.90;1.10;;;;;;;1.38;100.00;98592.59;6103081;29;20048;-90
2021/12/02 04:33:00;;;;;;;7.97;1.25;;;;;;;1.45;100.00;98590.44;6097216;29;20048;-90
2021/12/02 04:36:03;;;;;;;9.70;1.42;;;;;;;1.45;100.00;98588.69;6101731;29;20040;-90
2021/12/02 04:39:06;;;;;;;3.53;1.00;;;;;;;1.49;100.00;98607.09;6089465;29;20067;-90
2021/12/02 04:42:08;;;;;;;4.85;0.90;;;;;;;1.37;100.00;98620.75;6108161;29;20630;-90
2021/12/02 04:45:12;;;;;;;4.97;1.13;;;;;;;1.36;100.00;98604.63;6106910;29;20147;-91
2021/12/02 04:48:17;;;;;;;10.30;2.25;;;;;;;1.35;100.00;98620.06;6098922;29;20040;-90
2021/12/02 04:51:19;;;;;;;7.57;1.30;;;;;;;1.22;100.00;98610.75;6117633;29;20036;-90
2021/12/02 04:54:22;;;;;;;4.05;1.30;;;;;;;1.11;100.00;98610.69;6124055;29;20028;-91
2021/12/02 04:57:30;;;;;;;7.85;1.00;;;;;;;1.22;100.00;98615.84;6089157;29;20060;-91
2021/12/02 05:00:34;;;;;;;8.05;0.98;;;;;;;1.16;100.00;98621.34;6090972;29;20117;-91
2021/12/02 05:03:39;;;;;;;7.43;1.00;;;;;;;1.26;100.00;98617.22;6066870;29;20068;-91
2021/12/02 05:06:50;;;;;;;2.78;0.95;;;;;;;1.42;100.00;98624.59;6056999;29;20056;-91
2021/12/02 05:17:02;;;;;;;6.47;0.85;;;;;;;1.26;100.00;98644.44;6470609;23;20057;-91
2021/12/02 05:20:05;;;;;;;5.28;1.02;;;;;;;1.27;100.00;98643.53;6722199;23;20039;-91
2021/12/02 05:23:09;;;;;;;2.63;0.90;;;;;;;1.27;100.00;98648.66;6264022;23;20068;-91
2021/12/02 05:51:57;;;;;;;3.50;0.90;;;;;;;1.31;100.00;98670.41;7460891;23;20042;31
2021/12/02 06:13:59;;;;;;;;;;;;;;;1.51;100.00;98686.84;6668800;23;20135;-92
2021/12/02 06:17:09;;;;;;;4.85;1.55;;;;;;;1.47;100.00;98705.84;7282634;23;20018;31
2021/12/02 06:20:17;;;;;;;5.65;1.80;;;;;;;1.51;100.00;98697.84;6960827;23;20101;31
2021/12/02 06:56:09;;;;;;;4.70;1.27;;;;;;;1.39;100.00;98757.38;6833720;23;20026;-91
2021/12/02 07:15:25;;;;;;;3.67;1.00;;;;;;;1.89;100.00;98793.81;6265490;23;20452;31
2021/12/02 07:41:05;;;;;;;4.37;1.07;;;;;;;1.97;100.00;98828.16;7340393;23;21437;31
2021/12/02 07:44:10;;;;;;;4.13;1.50;;;;;;;1.88;100.00;98839.81;6230806;23;20053;-91
2021/12/02 07:47:13;;;;;;;4.22;1.42;;;;;;;1.77;100.00;98838.03;6135290;23;20031;-91
2021/12/02 07:50:17;;;;;;;3.25;1.30;;;;;;;1.72;100.00;98842.66;6070287;29;20045;-90
2021/12/02 07:53:20;;;;;;;4.43;1.27;;;;;;;1.73;100.00;98854.47;6077766;29;20594;-90
2021/12/02 07:56:24;;;;;;;3.83;1.55;;;;;;;1.66;100.00;98859.16;6064681;29;20052;-90
2021/12/02 07:59:27;;;;;;;2.30;0.98;;;;;;;1.70;100.00;98867.44;6058114;29;20426;-89
2021/12/02 08:02:33;;;;;;;5.47;1.35;;;;;;;1.83;100.00;98878.41;6073460;29;20041;-90
2021/12/02 08:05:36;;;;;;;7.53;2.45;;;;;;;1.63;100.00;98881.53;6045352;29;20080;-89
2021/12/02 08:08:39;;;;;;;3.70;1.80;;;;;;;1.56;100.00;98868.38;6064675;29;20085;-89
2021/12/02 08:11:41;;;;;;;9.90;2.58;;;;;;;1.58;100.00;98878.47;6065778;29;20759;-88
2021/12/02 08:14:43;;;;;;;5.68;2.03;;;;;;;1.55;100.00;98881.25;6066165;29;20103;-88
2021/12/02 08:17:46;;;;;;;5.25;2.00;;;;;;;1.58;100.00;98891.22;6074401;29;20071;-88
2021/12/02 08:20:48;;;;;;;3.88;1.50;;;;;;;1.62;100.00;98890.09;6066246;29;20457;-89
2021/12/02 08:23:50;;;;;;;6.82;2.08;;;;;;;1.57;100.00;98895.53;6072416;29;20055;-89
2021/12/02 08:26:53;;;;;;;3.15;1.35;;;;;;;1.54;100.00;98897.44;6065932;29;20060;-88
2021/12/02 08:29:55;;;;;;;4.28;1.27;;;;;;;1.44;100.00;98905.75;6065296;29;20041;-88
2021/12/02 08:32:58;;;;;;;4.60;1.30;;;;;;;1.47;100.00;98918.28;6074076;29;20353;-88
2021/12/02 08:36:01;;;;;;;3.70;1.70;;;;;;;1.43;100.00;98924.47;6074252;29;20080;-88
2021/12/02 08:39:06;;;;;;;2.22;1.63;;;;;;;1.43;100.00;98931.31;6077315;29;20063;-88
2021/12/02 08:42:09;;;;;;;6.32;1.50;;;;;;;1.44;100.00;98930.38;6061766;29;20056;-88
2021/12/02 08:45:11;;;;;;;5.20;1.20;;;;;;;1.48;100.00;98927.53;6061588;29;20048;-88
2021/12/02 08:48:13;;;;;;;4.72;1.20;;;;;;;1.47;100.00;98936.13;6071791;29;20056;-88
2021/12/02 08:51:15;;;;;;;5.63;1.30;;;;;;;1.56;100.00;98939.75;6073799;29;20048;-88
2021/12/02 08:54:18;;;;;;;3.97;1.08;;;;;;;1.60;100.00;98942.94;6082477;29;20471;-88
2021/12/02 08:57:23;;;;;;;5.28;1.50;;;;;;;1.69;100.00;98943.13;6064778;29;20049;-88
2021/12/02 09:00:32;;;;;;;1.75;0.93;;;;;;;1.70;100.00;98939.66;6087577;29;20056;-88
2021/12/02 09:03:37;;;;;;;6.07;1.60;;;;;;;1.79;100.00;98940.78;6061969;29;20041;-88
2021/12/02 09:06:39;;;;;;;4.00;1.17;;;;;;;1.88;100.00;98945.22;6067932;29;20097;-88
2021/12/02 09:09:42;;;;;;;5.18;1.50;;;;;;;1.94;100.00;98944.03;6074241;29;20494;-88
2021/12/02 09:12:45;;;;;;;5.55;1.45;;;;;;;1.88;100.00;98950.34;6068602;29;20063;-88
2021/12/02 09:15:47;;;;;;;5.07;1.60;;;;;;;1.79;100.00;98957.78;6055783;29;20216;-88
2021/12/02 09:18:49;;;;;;;4.60;1.38;;;;;;;1.75;100.00;98954.66;6063573;29;20069;-88
2021/12/02 09:21:51;;;;;;;4.65;1.40;;;;;;;1.73;100.00;98944.53;6059559;29;20128;-88
2021/12/02 09:24:54;;;;;;;2.50;1.20;;;;;;;1.58;100.00;98953.22;6068253;29;20482;-88
2021/12/02 09:27:56;;;;;;;4.40;1.23;;;;;;;1.64;100.00;98962.19;6056744;29;20049;-88
2021/12/02 09:30:58;;;;;;;3.45;1.13;;;;;;;1.62;100.00;98969.16;6063950;29;20045;-88
2021/12/02 09:34:00;;;;;;;1.60;1.00;;;;;;;1.57;100.00;98972.03;6061864;29;20115;-88
2021/12/02 09:37:02;;;;;;;5.22;1.17;;;;;;;1.51;100.00;98965.56;6085009;29;20048;-88
2021/12/02 09:40:07;;;;;;;4.72;1.48;;;;;;;1.37;100.00;98975.09;6057504;29;20050;-88
2021/12/02 09:43:12;;;;;;;2.03;1.20;;;;;;;1.37;100.00;98973.34;6060613;29;20491;-88
2021/12/02 09:46:14;;;;;;;3.63;1.10;;;;;;;1.33;100.00;98982.09;6059567;29;20056;-88
2021/12/02 09:49:16;;;;;;;4.88;1.20;;;;;;;1.39;100.00;98976.59;6064791;29;20055;-88
2021/12/02 09:52:25;;;;;;;2.88;1.42;;;;;;;1.38;100.00;98982.59;6053465;29;20048;-88
2021/12/02 09:55:36;;;;;;;4.07;1.40;;;;;;;1.42;100.00;98981.50;6059266;29;20041;-88
2021/12/02 09:58:54;;;;;;;5.63;1.88;;;;;;;1.46;100.00;98977.00;6070566;29;20055;-88
2021/12/02 10:02:05;;;;;;;3.60;1.33;;;;;;;1.45;100.00;98976.19;6059988;29;20086;-88
2021/12/02 10:05:11;;;;;;;2.83;1.45;;;;;;;1.36;100.00;98983.63;6058476;29;20670;-88
2021/12/02 10:08:26;;;;;;;4.40;1.65;;;;;;;1.39;100.00;98978.31;6064319;29;20446;-88
2021/12/02 10:11:32;;;;;;;2.65;1.27;;;;;;;1.44;100.00;98979.66;6064124;29;20045;-88
2021/12/02 10:14:38;;;;;;;2.47;1.50;;;;;;;1.54;100.00;98981.59;6067422;29;20528;-88
2021/12/02 10:17:57;;;;;;;3.28;1.60;;;;;;;1.54;100.00;98981.59;6072015;29;20044;-88
2021/12/02 10:21:16;;;;;;;5.85;2.25;;;;;;;1.55;100.00;98983.25;6072171;29;20459;-88
2021/12/02 10:24:23;;;;;;;3.60;1.58;;;;;;;1.63;100.00;98991.19;6070412;29;20064;-88
2021/12/02 10:27:25;;;;;;;4.03;1.80;;;;;;;1.55;100.00;98986.59;6069770;29;20053;-88
2021/12/02 10:30:28;;;;;;;4.32;1.70;;;;;;;1.66;100.00;98991.78;6067087;29;20052;-88
2021/12/02 10:33:32;;;;;;;4.60;1.90;;;;;;;1.63;100.00;98999.63;6069688;29;20055;-89
2021/12/02 10:36:39;;;;;;;4.00;2.05;;;;;;;1.54;100.00;98992.63;6058665;29;20055;-88
2021/12/02 10:40:04;;;;;;;5.40;1.95;;;;;;;1.77;100.00;98992.81;6083917;29;20132;-88
2021/12/02 10:43:08;;;;;;;5.78;1.98;;;;;;;2.03;100.00;99007.16;6069501;29;20344;-89
2021/12/02 10:46:20;;;;;;;2.97;1.73;;;;;;;2.04;100.00;99010.56;6062942;29;20108;-89
2021/12/02 10:49:25;;;;;;;4.30;1.85;;;;;;;2.00;100.00;99004.81;6052193;29;20107;-89
2021/12/02 10:52:33;;;;;;;4.15;1.85;;;;;;;1.98;100.00;99008.41;6056396;29;20053;-89
2021/12/02 10:55:35;;;;;;;5.68;1.73;;;;;;;2.05;100.00;99012.16;6056134;29;20049;-89
2021/12/02 10:58:37;;;;;;;5.18;1.70;;;;;;;2.29;100.00;99007.94;6062179;29;20048;-89
2021/12/02 11:01:40;;;;;;;5.60;1.63;;;;;;;2.55;100.00;99015.50;6067900;29;20044;-89
2021/12/02 11:04:46;;;;;;;3.50;1.30;;;;;;;2.55;100.00;99016.31;6055666;29;20048;-89
2021/12/02 11:08:06;;;;;;;3.13;1.50;;;;;;;2.54;100.00;99009.59;6052782;29;20052;-89
2021/12/02 11:11:22;;;;;;;4.32;1.60;;;;;;;2.40;100.00;99021.69;6060322;29;20047;-89
2021/12/02 11:14:28;;;;;;;3.45;1.33;;;;;;;2.55;100.00;99021.44;6063817;29;20073;-89
2021/12/02 11:17:33;;;;;;;3.45;1.38;;;;;;;2.63;100.00;99022.63;6073594;29;20104;-89
2021/12/02 11:21:01;;;;;;;4.75;1.42;;;;;;;2.74;100.00;99027.81;6070919;29;20060;-89
2021/12/02 11:24:05;;;;;;;4.55;1.40;;;;;;;2.70;100.00;99029.75;6065023;29;20123;-90
2021/12/02 11:27:26;;;;;;;4.82;1.60;;;;;;;2.75;100.00;99032.78;6068847;29;20052;-90
2021/12/02 11:30:30;;;;;;;6.38;2.75;;;;;;;2.83;100.00;99034.81;6068911;29;20087;-90
2021/12/02 11:33:45;;;;;;;7.28;1.75;;;;;;;2.85;100.00;99039.81;6083097;29;20044;-90
2021/12/02 11:36:48;;;;;;;2.85;1.88;;;;;;;2.97;100.00;99038.94;6069929;29;20052;-90
2021/12/02 11:39:52;;;;;;;1.83;1.30;;;;;;;3.05;100.00;99036.66;6075992;29;20048;-90
2021/12/02 11:42:55;;;;;;;4.10;1.70;;;;;;;3.06;100.00;99034.94;6075949;29;20045;-90
2021/12/02 11:45:59;;;;;;;3.97;1.48;;;;;;;3.09;100.00;99039.81;6070362;29;20052;-88
2021/12/02 11:49:02;;;;;;;3.97;1.45;;;;;;;3.05;100.00;99031.53;6079830;29;20068;-91
2021/12/02 11:52:08;;;;;;;3.05;1.30;;;;;;;3.14;100.00;99037.75;6108983;29;20109;-90
2021/12/02 11:55:35;;;;;;;3.22;1.02;;;;;;;3.17;100.00;99042.63;6084701;29;20053;-91
2021/12/02 11:58:51;;;;;;;2.42;1.38;;;;;;;3.17;100.00;99043.44;6073287;29;20125;-91
2021/12/02 12:01:56;;;;;;;5.18;1.45;;;;;;;3.21;100.00;99042.31;6069166;29;20079;-91
2021/12/02 12:05:03;;;;;;;2.40;1.23;;;;;;;3.10;100.00;99047.34;6042221;29;20121;-90
2021/12/02 12:08:05;;;;;;;2.58;1.17;;;;;;;3.04;100.00;99049.56;6057269;29;20141;-91
2021/12/02 12:11:34;;;;;;;4.72;1.45;;;;;;;3.06;100.00;99055.38;6065109;29;20053;-91
2021/12/02 12:14:40;;;;;;;3.75;1.52;;;;;;;2.84;100.00;99053.53;6058244;29;20076;-91
2021/12/02 12:17:43;;;;;;;3.20;1.40;;;;;;;2.76;100.00;99060.00;6071331;29;20041;-91
2021/12/02 12:21:07;;;;;;;3.17;1.60;;;;;;;2.67;100.00;99052.97;6089615;29;20056;-91
2021/12/02 12:28:14;;;;;;;2.08;1.80;;;;;;;2.56;100.00;99079.28;6734040;23;20019;-90
2021/12/02 14:57:57;;;;;;;3.75;1.10;;;;;;;1.17;100.00;99279.63;6913563;23;20007;-92
2021/12/02 15:01:34;;;;;;;6.43;1.67;;;;;;;1.03;100.00;99288.09;7272782;23;20044;-92
2021/12/02 15:05:43;;;;;;;3.28;1.60;;;;;;;0.82;100.00;99290.19;6051763;29;20038;-93
2021/12/02 15:12:35;;;;;;;1.20;0.80;;;;;;;0.70;100.00;99306.19;6518993;23;20270;-92
2021/12/02 15:15:54;;;;;;;2.08;0.90;;;;;;;0.47;100.00;99310.03;6368979;23;20065;-92
2021/12/02 15:19:04;;;;;;;1.00;0.60;;;;;;;0.41;100.00;99314.56;7258964;23;20019;31
2021/12/02 15:22:57;;;;;;;1.93;1.00;;;;;;;0.35;100.00;99316.66;7002839;23;20026;31
2021/12/02 15:26:25;;;;;;;1.13;0.63;;;;;;;0.37;100.00;99325.00;7261030;23;20266;-92
2021/12/02 15:29:57;;;;;;;3.00;0.90;;;;;;;0.35;100.00;99329.41;6097279;29;20188;-93
2021/12/02 15:33:01;;;;;;;1.08;0.93;;;;;;;0.30;100.00;99336.44;6090638;29;20029;-93
2021/12/02 15:36:16;;;;;;;1.95;0.85;;;;;;;0.34;100.00;99337.91;6146954;29;20048;-93
2021/12/02 15:39:18;;;;;;;1.75;0.95;;;;;;;0.13;100.00;99343.28;6124937;29;20045;-93
2021/12/02 15:42:30;;;;;;;2.70;0.80;;;;;;;-0.04;100.00;99346.75;6101459;29;20057;-93
2021/12/02 15:45:35;;;;;;;1.60;0.70;;;;;;;-0.26;100.00;99353.91;6103459;29;20048;-93
2021/12/02 15:48:40;;;;;;;0.68;0.50;;;;;;;-0.44;100.00;99356.50;6090243;29;20036;-93
2021/12/02 15:51:43;;;;;;;2.35;1.00;;;;;;;-0.47;100.00;99366.84;6103468;29;20045;-93
2021/12/02 15:54:46;;;;;;;1.80;0.82;;;;;;;-0.24;100.00;99380.88;6101612;29;20112;-93
2021/12/02 15:57:53;;;;;;;3.20;1.20;;;;;;;-0.23;100.00;99390.16;6094786;29;20074;-92
2021/12/02 16:01:00;;;;;;;2.15;1.20;;;;;;;-0.15;100.00;99396.56;6092595;29;20510;-92
2021/12/02 16:04:08;;;;;;;1.75;0.90;;;;;;;-0.14;100.00;99400.75;6091663;29;20084;-93
2021/12/02 16:07:15;;;;;;;2.05;1.10;;;;;;;-0.20;100.00;99406.16;6095889;29;20051;-92
2021/12/02 16:13:39;;;;;;;2.42;1.45;;;;;;;-0.32;100.00;99425.44;6115112;29;20100;-93
2021/12/02 16:16:42;;;;;;;2.28;1.48;;;;;;;-0.45;100.00;99427.75;6097834;29;20063;-92
2021/12/02 16:19:45;;;;;;;5.22;1.80;;;;;;;-0.63;100.00;99433.78;6097536;29;20072;-93
2021/12/02 16:22:49;;;;;;;2.38;1.30;;;;;;;-0.60;100.00;99443.78;6103722;29;20390;-92
2021/12/02 16:25:52;;;;;;;3.85;1.20;;;;;;;-0.67;100.00;99441.56;6099176;29;20048;-93
2021/12/02 16:28:55;;;;;;;2.53;1.15;;;;;;;-0.77;100.00;99458.19;6099564;29;20065;-93
2021/12/02 16:31:59;;;;;;;2.00;1.20;;;;;;;-1.00;100.00;99461.00;6087242;29;20079;-93
2021/12/02 16:35:07;;;;;;;5.40;1.60;;;;;;;-1.09;100.00;99467.38;6080010;29;20040;-93
2021/12/02 16:38:10;;;;;;;4.28;2.05;;;;;;;-1.20;100.00;99474.66;6087289;29;20047;-92
2021/12/02 16:41:13;;;;;;;2.72;1.50;;;;;;;-1.27;100.00;99474.13;6088519;29;20105;-92
2021/12/02 16:44:18;;;;;;;4.60;1.70;;;;;;;-1.25;100.00;99491.81;6068270;29;20069;-93
2021/12/02 16:47:21;;;;;;;3.55;2.03;;;;;;;-1.19;100.00;99499.13;6085160;29;20055;-92
2021/12/02 16:50:47;;;;;;;4.10;2.40;;;;;;;-1.27;100.00;99501.22;6089215;29;20056;-92
2021/12/02 16:53:49;;;;;;;3.65;2.67;;;;;;;-1.33;100.00;99504.88;6093045;29;20052;-92
2021/12/02 16:56:51;;;;;;;4.97;1.60;;;;;;;-1.36;100.00;99505.03;6083097;29;20100;-93
2021/12/02 16:59:56;;;;;;;2.75;1.45;;;;;;;-1.35;100.00;99506.66;6085721;29;20061;-93
2021/12/02 17:02:59;;;;;;;3.58;1.40;;;;;;;-1.39;100.00;99511.06;6092746;29;20095;-92
2021/12/02 17:06:05;;;;;;;3.38;1.77;;;;;;;-1.40;100.00;99513.66;6093052;29;20132;-93
2021/12/02 17:09:10;;;;;;;5.05;1.40;;;;;;;-1.47;100.00;99522.44;6090249;29;20044;-93
2021/12/02 17:12:14;;;;;;;2.35;1.20;;;;;;;-1.55;100.00;99523.63;6084298;29;20053;-92
2021/12/02 17:15:22;;;;;;;3.65;1.50;;;;;;;-1.53;100.00;99537.06;6084001;29;20053;-93
2021/12/02 17:18:25;;;;;;;2.45;1.33;;;;;;;-1.55;100.00;99548.19;6090585;29;20052;-92
2021/12/02 17:21:31;;;;;;;2.80;1.52;;;;;;;-1.44;100.00;99557.84;6085399;29;20056;-92
2021/12/02 17:24:36;;;;;;;5.13;1.77;;;;;;;-1.55;100.00;99565.94;6083632;29;20072;-92
2021/12/02 17:27:43;;;;;;;3.33;1.60;;;;;;;-1.54;100.00;99565.03;6078565;29;20105;-92
2021/12/02 17:30:47;;;;;;;5.03;2.05;;;;;;;-1.61;100.00;99572.13;6081223;29;20049;-92
2021/12/02 17:33:51;;;;;;;4.15;2.78;;;;;;;-1.61;100.00;99576.38;6091309;29;20079;-92
2021/12/02 17:36:55;;;;;;;4.97;2.50;;;;;;;-1.56;100.00;99585.41;6075645;29;20044;-92
2021/12/02 17:39:57;;;;;;;6.25;2.28;;;;;;;-1.59;100.00;99584.72;6073314;29;20136;-92
2021/12/02 17:43:07;;;;;;;6.47;2.70;;;;;;;-1.65;100.00;99585.81;6071599;29;20032;-92
2021/12/02 17:46:12;;;;;;;5.82;2.83;;;;;;;-1.57;100.00;99593.91;6072550;29;20044;-92
2021/12/02 17:49:15;;;;;;;6.45;2.13;;;;;;;-1.53;100.00;99592.06;6074136;29;20041;-92
2021/12/02 17:52:23;;;;;;;2.30;1.70;;;;;;;-1.60;100.00;99604.19;6069475;29;20036;-92
2021/12/02 17:55:39;;;;;;;3.53;2.00;;;;;;;-1.67;100.00;99605.34;6067711;29;20076;-92
2021/12/02 17:58:42;;;;;;;1.83;1.70;;;;;;;-1.70;100.00;99605.50;6056153;29;20048;-92
2021/12/02 18:01:51;;;;;;;5.38;1.88;;;;;;;-1.65;100.00;99623.88;6069097;29;20415;-92
2021/12/02 18:04:56;;;;;;;2.97;1.40;;;;;;;-1.72;100.00;99622.47;6080586;29;20048;-92
2021/12/02 18:08:04;;;;;;;4.72;2.03;;;;;;;-1.65;100.00;99626.41;6077697;29;20581;-92
2021/12/02 18:11:06;;;;;;;2.67;1.80;;;;;;;-1.64;100.00;99633.16;6075625;29;20044;-92
2021/12/02 18:14:14;;;;;;;3.63;1.63;;;;;;;-1.63;100.00;99641.56;6070965;29;20096;-92
2021/12/02 18:17:20;;;;;;;2.45;1.70;;;;;;;-1.55;100.00;99654.75;6080590;29;20060;-93
2021/12/02 18:20:21;;;;;;;3.03;1.60;;;;;;;-1.57;100.00;99649.72;6076081;29;20052;-92
2021/12/02 18:23:28;;;;;;;2.30;1.60;;;;;;;-1.57;100.00;99652.25;6076167;29;20123;-92
2021/12/02 18:26:39;;;;;;;3.50;1.55;;;;;;;-1.62;100.00;99656.72;6074503;29;21652;-92
2021/12/02 18:29:41;;;;;;;3.10;2.00;;;;;;;-1.76;100.00;99659.84;6070730;29;20040;-92
2021/12/02 18:32:50;;;;;;;3.83;1.80;;;;;;;-1.81;100.00;99656.69;6075603;29;20045;-92
2021/12/02 18:35:55;;;;;;;6.28;1.83;;;;;;;-1.90;100.00;99663.84;6070346;29;20041;-92
2021/12/02 18:39:00;;;;;;;2.28;1.80;;;;;;;-1.90;100.00;99674.81;6069410;29;20067;-92
2021/12/02 18:42:04;;;;;;;3.40;2.00;;;;;;;-1.98;100.00;99670.06;6072620;29;20049;-92
2021/12/02 18:45:07;;;;;;;4.15;2.00;;;;;;;-1.99;100.00;99670.13;6051170;29;20059;-92
2021/12/02 18:48:09;;;;;;;3.25;2.00;;;;;;;-2.00;100.00;99671.00;6068281;29;20044;-92
2021/12/02 18:51:13;;;;;;;3.65;2.13;;;;;;;-2.01;100.00;99677.81;6063245;29;20072;-92
2021/12/02 18:54:24;;;;;;;3.92;1.63;;;;;;;-2.06;100.00;99677.16;6064882;29;20061;-91
2021/12/02 18:57:29;;;;;;;2.58;1.90;;;;;;;-2.02;100.00;99673.59;6062068;29;20041;-92
2021/12/02 19:00:31;;;;;;;4.82;1.90;;;;;;;-2.04;100.00;99685.50;6057659;29;20368;-92
2021/12/02 19:03:35;;;;;;;3.67;1.83;;;;;;;-2.07;100.00;99685.66;6068765;29;20049;-92
2021/12/02 19:26:09;;;;;;;2.65;1.40;;;;;;;-2.10;100.00;99706.06;6069272;29;20060;-91
2021/12/02 19:27:03;;;;;;;1.60;1.30;;;;;;;-2.11;100.00;99713.72;6083599;29;20048;-91
2021/12/02 19:30:10;;;;;;;2.65;1.67;;;;;;;-2.02;100.00;99715.88;6069680;29;20047;-91
2021/12/02 19:33:14;;;;;;;2.92;1.33;;;;;;;-2.10;100.00;99710.31;6068907;29;20176;-91
2021/12/02 19:36:18;;;;;;;3.20;1.73;;;;;;;-2.10;100.00;99718.75;6072400;29;20049;-91
2021/12/02 19:39:20;;;;;;;2.58;1.35;;;;;;;-2.02;100.00;99715.88;6073792;29;20056;-91
2021/12/02 19:42:29;;;;;;;3.38;1.50;;;;;;;-2.04;100.00;99712.59;6074306;29;20061;-91
2021/12/02 19:45:32;;;;;;;3.50;1.67;;;;;;;-1.98;100.00;99720.78;6072349;29;20060;-91
2021/12/02 19:48:43;;;;;;;4.57;2.17;;;;;;;-2.02;100.00;99723.50;6071464;29;20750;-91
2021/12/02 19:51:47;;;;;;;3.28;1.75;;;;;;;-2.01;100.00;99725.97;6073243;29;20047;-91
2021/12/02 19:54:50;;;;;;;2.45;1.88;;;;;;;-2.02;100.00;99726.03;6073826;29;20068;-91
2021/12/02 19:58:04;;;;;;;4.28;1.65;;;;;;;-2.05;100.00;99729.53;6054908;29;20059;-91
2021/12/02 20:01:06;;;;;;;2.83;1.88;;;;;;;-2.03;100.00;99730.28;6071729;29;20939;-91
2021/12/02 20:04:09;;;;;;;3.35;1.67;;;;;;;-2.02;100.00;99734.47;6070061;29;20060;-91
2021/12/02 20:07:18;;;;;;;2.13;1.80;;;;;;;-2.04;100.00;99731.16;6071371;29;20045;-91
2021/12/02 20:10:24;;;;;;;5.18;2.00;;;;;;;-2.11;100.00;99731.47;6071134;29;20236;-90
2021/12/02 20:13:27;;;;;;;5.93;2.42;;;;;;;-2.15;100.00;99728.22;6071411;29;20036;-90
2021/12/02 20:16:40;;;;;;;5.78;1.90;;;;;;;-2.11;100.00;99714.56;6072663;29;20048;-91
2021/12/02 20:19:45;;;;;;;3.28;1.70;;;;;;;-2.17;100.00;99714.78;6073422;29;20048;-90